Telfer Mining Centre, Australia
Current Conditions -  °F | °C
As of 4:00 PM on Friday 28 Nov 2014 (Local Time) from YNWN Reporting Station
Scattered Clouds Scattered Clouds  
Wind Chill: 93°   Ceiling: Unl
Heat Index: 93°   Visibility: 6mi
Dew Point: 57°   Wind: 12mph
Humidity: 30%   Direction: 330°NNW
Pressure: 29.8"   Gusts: NA
Location:  21.71°S, 122.22°E
Report Text: YNWN 280800Z AUTO 33010KT 9999 // SCT083 34/14 Q1009
Loading
Personal Weather Stations






























Interactive Weather Map New forecast layout! Learn more

10-Day Weather Forecast

Advertisements
Track Severe Weather on mobile